Time;durP1;ratioP1;P1;durP2;ratioP2;P2;SDS_P1;SDS_P2;PMS_P1;PMS_P2;Temp;Humidity;BMP_temperature;BMP_pressure;BME280_temperature;BME280_humidity;BME280_pressure;Samples;Min_cycle;Max_cycle;Signal;HPM_P1;HPM_P2
2022/12/22 03:27:52;;;;;;;13.90;10.90;;;7.70;99.90;;;;;;5077646;28;20413;-67
2022/12/22 03:30:19;;;;;;;13.33;10.57;;;7.70;99.90;;;;;;5077560;28;20449;-68
2022/12/22 03:32:48;;;;;;;12.57;11.27;;;7.60;99.90;;;;;;5077577;28;20461;-68
2022/12/22 03:35:14;;;;;;;11.83;10.47;;;7.70;99.90;;;;;;5077467;28;20477;-68
2022/12/22 03:37:41;;;;;;;13.37;10.60;;;7.60;99.90;;;;;;5077525;28;20884;-68
2022/12/22 03:40:09;;;;;;;13.90;12.40;;;7.60;99.90;;;;;;5077558;28;20817;-67
2022/12/22 03:48:06;;;;;;;14.70;10.73;;;7.60;99.90;;;;;;5077794;28;20425;-68
2022/12/22 03:50:33;;;;;;;13.37;10.87;;;7.60;99.90;;;;;;5077124;28;20450;-68
2022/12/22 03:53:00;;;;;;;14.30;10.27;;;7.60;99.90;;;;;;5077114;28;20867;-67
2022/12/22 03:55:27;;;;;;;13.33;11.13;;;7.60;99.90;;;;;;5077283;28;20847;-69
2022/12/22 03:57:53;;;;;;;13.83;11.07;;;7.60;99.90;;;;;;5076814;28;20481;-68
2022/12/22 04:00:21;;;;;;;13.43;11.50;;;7.50;99.90;;;;;;5077663;28;20747;-68
2022/12/22 04:02:47;;;;;;;13.83;12.23;;;7.60;99.90;;;;;;5077035;28;20537;-68
2022/12/22 04:05:16;;;;;;;13.47;11.60;;;7.50;99.90;;;;;;5076103;28;20923;-68
2022/12/22 04:07:43;;;;;;;14.13;11.90;;;7.50;99.90;;;;;;5076866;28;20451;-69
2022/12/22 04:12:54;;;;;;;15.10;12.33;;;7.50;99.90;;;;;;5077174;28;20569;-67
2022/12/22 04:15:22;;;;;;;18.97;11.83;;;7.50;99.90;;;;;;5076973;28;20454;-67
2022/12/22 04:17:48;;;;;;;15.23;11.90;;;7.50;99.90;;;;;;5076577;28;20789;-68
2022/12/22 04:20:17;;;;;;;17.07;12.20;;;7.50;99.90;;;;;;5076770;28;20922;-68
2022/12/22 04:22:44;;;;;;;14.47;12.50;;;7.50;99.90;;;;;;5076545;28;20454;-68
2022/12/22 04:25:11;;;;;;;15.70;12.83;;;7.40;99.90;;;;;;5076804;28;20461;-69
2022/12/22 04:27:38;;;;;;;15.50;12.40;;;7.40;99.90;;;;;;5076804;28;20770;-69
2022/12/22 04:30:07;;;;;;;14.60;12.27;;;7.50;99.90;;;;;;5076903;28;20454;-68
2022/12/22 04:32:34;;;;;;;15.13;11.80;;;7.50;99.90;;;;;;5077317;28;20531;-68
2022/12/22 04:35:01;;;;;;;16.30;12.53;;;7.50;99.90;;;;;;5076437;28;20453;-68
2022/12/22 04:37:29;;;;;;;15.97;13.97;;;7.50;99.90;;;;;;5076553;28;20464;-68
2022/12/22 04:39:56;;;;;;;16.60;13.60;;;7.50;99.90;;;;;;5076362;28;20454;-68
2022/12/22 04:42:22;;;;;;;16.30;13.40;;;7.50;99.90;;;;;;5076410;28;20763;-68
2022/12/22 04:44:50;;;;;;;18.17;13.93;;;7.60;99.90;;;;;;5076273;28;20461;-68
2022/12/22 04:47:16;;;;;;;20.07;14.63;;;7.60;99.90;;;;;;5075797;28;20576;-67
2022/12/22 04:49:43;;;;;;;18.20;15.00;;;7.70;99.90;;;;;;5076333;28;20450;-68
2022/12/22 04:52:11;;;;;;;19.07;14.67;;;7.70;99.90;;;;;;5076079;28;20458;-67
2022/12/22 04:54:39;;;;;;;17.83;14.03;;;7.70;99.90;;;;;;5075867;28;20461;-67
2022/12/22 04:57:06;;;;;;;19.67;15.47;;;7.70;99.90;;;;;;5076146;28;20451;-68
2022/12/22 04:59:32;;;;;;;18.40;14.57;;;7.80;99.90;;;;;;5075551;28;20992;-68
2022/12/22 05:01:59;;;;;;;18.90;14.30;;;7.80;99.90;;;;;;5076062;28;20549;-68
2022/12/22 05:04:26;;;;;;;21.30;14.80;;;7.80;99.90;;;;;;5075839;28;20550;-68
2022/12/22 05:06:53;;;;;;;20.80;15.30;;;7.90;99.90;;;;;;5075871;28;20458;-67
2022/12/22 05:09:20;;;;;;;22.27;15.30;;;7.90;99.90;;;;;;5075352;28;20454;-67
2022/12/22 05:11:48;;;;;;;18.17;13.83;;;7.90;99.90;;;;;;5075737;28;20561;-67
2022/12/22 05:14:15;;;;;;;19.80;15.17;;;7.90;99.90;;;;;;5075501;28;20465;-66
2022/12/22 05:16:42;;;;;;;18.77;15.47;;;8.00;99.90;;;;;;5075076;28;20454;-68
2022/12/22 05:19:09;;;;;;;19.73;15.33;;;8.00;99.90;;;;;;5074916;28;20478;-68
2022/12/22 05:21:36;;;;;;;20.93;15.60;;;8.00;99.90;;;;;;5075378;28;20918;-68
2022/12/22 05:24:03;;;;;;;18.40;15.07;;;8.00;99.90;;;;;;5075491;28;20957;-68
2022/12/22 05:26:29;;;;;;;22.00;16.80;;;8.00;99.90;;;;;;5075531;28;20454;-68
2022/12/22 05:28:58;;;;;;;21.40;16.87;;;8.00;99.90;;;;;;5075415;28;20454;-68
2022/12/22 05:31:26;;;;;;;21.27;15.80;;;8.00;99.90;;;;;;5075795;28;20462;-68
2022/12/22 05:33:53;;;;;;;20.60;16.40;;;8.00;99.90;;;;;;5075165;28;20553;-68
2022/12/22 05:36:20;;;;;;;21.00;16.47;;;8.00;99.90;;;;;;5075333;28;20816;-68
2022/12/22 05:38:46;;;;;;;19.57;15.00;;;8.00;99.90;;;;;;5075159;28;20871;-68
2022/12/22 05:41:14;;;;;;;22.47;17.50;;;8.00;99.90;;;;;;5074910;28;20552;-68
2022/12/22 05:43:41;;;;;;;22.23;17.00;;;8.00;99.90;;;;;;5074868;28;20458;-68
2022/12/22 05:46:11;;;;;;;21.30;16.77;;;8.00;99.90;;;;;;5074943;28;20478;-68
2022/12/22 05:48:38;;;;;;;26.00;18.40;;;8.00;99.90;;;;;;5075109;28;20446;-67
2022/12/22 05:51:05;;;;;;;22.73;17.33;;;7.90;99.90;;;;;;5074643;28;20464;-68
2022/12/22 05:53:32;;;;;;;21.57;17.73;;;7.90;99.90;;;;;;5074865;28;20537;-67
2022/12/22 05:55:59;;;;;;;24.70;19.03;;;7.90;99.90;;;;;;5075221;28;20626;-69
2022/12/22 05:58:26;;;;;;;21.57;16.73;;;7.90;99.90;;;;;;5074684;28;20484;-67
2022/12/22 06:00:56;;;;;;;22.87;17.63;;;7.90;99.90;;;;;;5075275;28;20458;-68
2022/12/22 06:03:25;;;;;;;23.80;17.00;;;7.90;99.90;;;;;;5075196;28;20447;-68
2022/12/22 06:05:52;;;;;;;22.60;17.20;;;7.90;99.90;;;;;;5075091;28;20784;-67
2022/12/22 06:08:19;;;;;;;22.33;17.47;;;8.00;99.90;;;;;;5074859;28;20786;-68
2022/12/22 06:10:45;;;;;;;24.97;17.50;;;8.00;99.90;;;;;;5074988;28;20464;-68
2022/12/22 06:13:12;;;;;;;25.13;17.70;;;8.00;99.90;;;;;;5074905;28;20556;-68
2022/12/22 06:15:39;;;;;;;23.10;17.13;;;8.00;99.90;;;;;;5074685;28;20934;-68
2022/12/22 06:18:06;;;;;;;27.17;18.20;;;8.00;99.90;;;;;;5074579;28;20464;-67
2022/12/22 06:20:34;;;;;;;25.70;19.80;;;8.00;99.90;;;;;;5074608;28;20454;-67
2022/12/22 06:23:01;;;;;;;28.03;19.30;;;7.90;99.90;;;;;;5074829;28;20473;-68
2022/12/22 06:25:28;;;;;;;25.30;19.17;;;7.90;99.90;;;;;;5074511;28;20484;-67
2022/12/22 06:27:55;;;;;;;24.77;17.80;;;8.00;99.90;;;;;;5074469;28;20553;-68
2022/12/22 06:30:21;;;;;;;30.77;19.83;;;8.00;99.90;;;;;;5074510;28;20464;-68
2022/12/22 06:32:48;;;;;;;27.20;19.27;;;8.00;99.90;;;;;;5075168;28;20449;-67
2022/12/22 06:35:15;;;;;;;29.07;20.77;;;8.10;99.90;;;;;;5074902;28;20465;-68
2022/12/22 06:37:44;;;;;;;25.90;19.13;;;8.10;99.90;;;;;;5074598;28;20557;-68
2022/12/22 06:40:11;;;;;;;26.63;19.43;;;8.10;99.90;;;;;;5074544;28;20808;-67
2022/12/22 06:45:23;;;;;;;25.40;19.00;;;8.10;99.90;;;;;;5074250;28;20511;-68
2022/12/22 06:47:50;;;;;;;27.03;19.37;;;8.00;99.90;;;;;;5074148;28;20464;-67
2022/12/22 06:50:17;;;;;;;28.30;19.93;;;8.00;99.90;;;;;;5074656;28;20599;-69
2022/12/22 06:52:57;;;;;;;26.80;19.63;;;8.00;99.90;;;;;;5081919;28;20464;-70
2022/12/22 06:55:24;;;;;;;29.50;21.13;;;8.00;99.90;;;;;;5074294;28;20442;-68
2022/12/22 06:57:50;;;;;;;30.43;20.17;;;8.00;99.90;;;;;;5074320;28;20541;-69
2022/12/22 07:00:18;;;;;;;28.13;21.13;;;8.00;99.90;;;;;;5074186;28;20817;-69
2022/12/22 07:02:45;;;;;;;28.43;20.47;;;8.00;99.90;;;;;;5075967;28;20894;-69
2022/12/22 07:05:14;;;;;;;27.47;20.23;;;8.10;99.90;;;;;;5078354;28;20464;-68
2022/12/22 07:07:41;;;;;;;25.77;18.97;;;8.10;99.90;;;;;;5080043;28;20457;-69
2022/12/22 07:10:10;;;;;;;28.07;20.00;;;8.10;99.90;;;;;;5079254;28;20910;-69
2022/12/22 07:12:37;;;;;;;25.87;18.20;;;8.00;99.90;;;;;;5076912;28;20533;-70
2022/12/22 07:15:04;;;;;;;25.60;19.20;;;8.00;99.90;;;;;;5076964;28;20545;-68
2022/12/22 07:17:31;;;;;;;28.00;19.67;;;8.00;99.90;;;;;;5076726;28;20454;-68
2022/12/22 07:19:58;;;;;;;25.93;19.00;;;8.10;99.90;;;;;;5076740;28;20478;-69
2022/12/22 07:22:25;;;;;;;26.00;19.40;;;8.10;99.90;;;;;;5076274;28;20929;-69
2022/12/22 07:24:53;;;;;;;28.87;19.63;;;8.10;99.90;;;;;;5077427;28;20454;-68
2022/12/22 07:27:21;;;;;;;27.47;19.17;;;8.20;99.90;;;;;;5076630;28;20465;-68
2022/12/22 07:29:48;;;;;;;27.50;17.80;;;8.20;99.90;;;;;;5076746;28;20482;-68
2022/12/22 07:32:15;;;;;;;27.20;19.53;;;8.20;99.90;;;;;;5075017;28;20545;-67
2022/12/22 07:34:42;;;;;;;23.40;18.83;;;8.10;99.90;;;;;;5075052;28;20553;-69
2022/12/22 07:37:08;;;;;;;26.93;19.73;;;8.10;99.90;;;;;;5073982;28;20458;-66
2022/12/22 07:39:35;;;;;;;25.47;18.70;;;8.10;99.90;;;;;;5074095;28;20482;-68
2022/12/22 07:44:48;;;;;;;24.70;18.43;;;8.10;99.90;;;;;;5078153;28;20480;-68
2022/12/22 07:47:15;;;;;;;23.00;18.00;;;8.10;99.90;;;;;;5077494;28;20573;-67
2022/12/22 07:52:26;;;;;;;31.00;17.90;;;8.20;99.90;;;;;;5080750;28;20476;-68
2022/12/22 07:54:52;;;;;;;25.40;18.90;;;8.20;99.90;;;;;;5080794;28;20533;-68
2022/12/22 07:57:19;;;;;;;24.77;18.60;;;8.20;99.90;;;;;;5078417;28;20459;-69
2022/12/22 07:59:48;;;;;;;31.13;23.03;;;8.20;99.90;;;;;;5078254;28;20478;-68
2022/12/22 08:02:14;;;;;;;29.00;21.00;;;8.20;99.90;;;;;;5078275;28;20465;-67
2022/12/22 08:04:41;;;;;;;24.83;18.70;;;8.20;99.90;;;;;;5078673;28;20500;-67
2022/12/22 08:07:08;;;;;;;25.20;18.20;;;8.20;99.90;;;;;;5078644;28;20458;-67
2022/12/22 08:09:35;;;;;;;26.43;17.57;;;8.30;99.90;;;;;;5078259;28;20490;-68
2022/12/22 08:12:02;;;;;;;23.83;17.53;;;8.30;99.90;;;;;;5077576;28;20470;-68
2022/12/22 08:14:28;;;;;;;23.40;17.40;;;8.20;99.90;;;;;;5076925;28;20454;-68
2022/12/22 08:16:57;;;;;;;24.87;18.60;;;8.20;99.90;;;;;;5076894;28;20545;-68
2022/12/22 08:19:23;;;;;;;26.87;18.30;;;8.20;99.90;;;;;;5077426;28;20869;-67
2022/12/22 08:21:50;;;;;;;24.97;17.50;;;8.20;99.90;;;;;;5077354;28;20454;-68
2022/12/22 08:24:17;;;;;;;27.13;16.63;;;8.20;99.90;;;;;;5077567;28;20523;-67
2022/12/22 08:26:46;;;;;;;24.50;16.37;;;8.20;99.90;;;;;;5078455;28;20454;-68
2022/12/22 08:29:17;;;;;;;20.90;16.13;;;8.20;99.90;;;;;;5077169;28;20481;-68
2022/12/22 08:31:45;;;;;;;24.60;17.67;;;8.20;99.90;;;;;;5077631;28;20636;-67
2022/12/22 08:34:15;;;;;;;22.20;18.17;;;8.20;99.90;;;;;;5077054;28;20468;-68
2022/12/22 08:36:46;;;;;;;22.30;16.47;;;8.20;99.90;;;;;;5077325;28;20541;-68
2022/12/22 08:39:13;;;;;;;24.57;17.77;;;8.20;99.90;;;;;;5076808;28;20954;-67
2022/12/22 08:41:52;;;;;;;23.30;16.90;;;8.20;99.90;;;;;;5076693;28;20456;-67
2022/12/22 08:44:21;;;;;;;27.23;17.87;;;8.20;99.90;;;;;;5077796;28;20470;-68
2022/12/22 08:46:48;;;;;;;23.30;18.03;;;8.20;99.90;;;;;;5076997;28;20488;-66
2022/12/22 08:49:17;;;;;;;25.93;18.47;;;8.20;99.90;;;;;;5077244;28;20460;-68
2022/12/22 08:51:44;;;;;;;24.60;16.33;;;8.20;99.90;;;;;;5077612;28;20811;-67
2022/12/22 08:54:11;;;;;;;26.17;18.83;;;8.20;99.90;;;;;;5076727;28;20460;-68
2022/12/22 08:56:38;;;;;;;22.17;17.00;;;8.20;99.90;;;;;;5081150;28;20454;-68
2022/12/22 08:59:06;;;;;;;24.27;17.77;;;8.20;99.90;;;;;;5077555;28;20574;-67
2022/12/22 09:01:35;;;;;;;25.50;17.90;;;8.20;99.90;;;;;;5077200;28;20462;-68
2022/12/22 09:04:03;;;;;;;26.70;18.50;;;8.20;99.90;;;;;;5076279;28;20462;-67
2022/12/22 09:06:32;;;;;;;24.93;17.07;;;8.20;99.90;;;;;;5076410;28;20454;-68
2022/12/22 09:09:00;;;;;;;22.53;17.30;;;8.20;99.90;;;;;;5076150;28;20461;-68
2022/12/22 09:11:28;;;;;;;22.67;16.90;;;8.20;99.90;;;;;;5076738;28;20455;-68
2022/12/22 09:13:57;;;;;;;25.30;16.20;;;8.20;99.90;;;;;;5075915;28;20458;-68
2022/12/22 09:16:25;;;;;;;24.03;16.80;;;8.30;99.90;;;;;;5075679;28;20458;-68
2022/12/22 09:18:52;;;;;;;20.80;16.33;;;8.30;99.90;;;;;;5075888;28;20454;-68
2022/12/22 09:21:19;;;;;;;23.30;17.20;;;8.30;99.90;;;;;;5076020;28;20460;-68
2022/12/22 09:23:47;;;;;;;20.53;15.93;;;8.30;99.90;;;;;;5075674;28;20450;-67
2022/12/22 09:26:16;;;;;;;22.93;15.80;;;8.30;99.90;;;;;;5075437;28;20907;-68
2022/12/22 09:28:43;;;;;;;21.00;15.63;;;8.30;99.90;;;;;;5075707;28;20450;-69
2022/12/22 09:31:11;;;;;;;23.10;16.17;;;8.40;99.90;;;;;;5076350;28;20461;-67
2022/12/22 09:33:38;;;;;;;22.03;15.60;;;8.40;99.90;;;;;;5075654;28;20454;-67
2022/12/22 09:36:06;;;;;;;21.23;15.50;;;8.40;99.90;;;;;;5075388;28;20472;-68
2022/12/22 09:38:33;;;;;;;21.00;16.00;;;8.40;99.90;;;;;;5075815;28;20988;-68
2022/12/22 09:41:07;;;;;;;20.40;16.07;;;8.30;99.90;;;;;;5075689;28;20486;-68
2022/12/22 09:43:34;;;;;;;19.47;15.13;;;8.30;99.90;;;;;;5075441;28;20542;-68
2022/12/22 09:46:01;;;;;;;18.90;15.17;;;8.40;99.90;;;;;;5075166;28;20482;-68
2022/12/22 09:48:35;;;;;;;20.77;15.20;;;8.30;99.90;;;;;;5075221;28;20476;-68
2022/12/22 09:51:03;;;;;;;23.13;16.67;;;8.30;99.90;;;;;;5075411;28;20582;-68
2022/12/22 09:53:31;;;;;;;20.50;16.30;;;8.40;99.90;;;;;;5075525;28;20465;-68
2022/12/22 09:55:58;;;;;;;23.00;15.67;;;8.40;99.90;;;;;;5075378;28;20465;-68
2022/12/22 09:58:30;;;;;;;24.00;15.83;;;8.40;99.90;;;;;;5075562;28;20453;-68
2022/12/22 10:01:08;;;;;;;20.73;16.90;;;8.40;99.90;;;;;;5075355;28;20811;-68
2022/12/22 10:03:45;;;;;;;19.47;15.53;;;8.40;99.90;;;;;;5074680;28;20955;-67
2022/12/22 10:06:17;;;;;;;18.80;15.37;;;8.40;99.90;;;;;;5075299;28;20442;-68
2022/12/22 10:08:44;;;;;;;21.03;15.50;;;8.50;99.90;;;;;;5075307;28;20439;-68
2022/12/22 10:11:14;;;;;;;19.40;15.10;;;8.50;99.90;;;;;;5075341;28;20460;-68
2022/12/22 10:13:43;;;;;;;21.23;15.30;;;8.50;99.90;;;;;;5075420;28;20454;-67
2022/12/22 10:16:18;;;;;;;22.30;14.80;;;8.50;99.90;;;;;;5075032;28;20792;-68
2022/12/22 10:18:56;;;;;;;18.40;14.57;;;8.50;99.90;;;;;;5075029;28;20497;-68
2022/12/22 10:21:25;;;;;;;18.73;14.63;;;8.50;99.90;;;;;;5074913;28;20462;-68
2022/12/22 10:23:52;;;;;;;20.90;14.93;;;8.50;99.90;;;;;;5075158;28;20519;-68
2022/12/22 10:26:23;;;;;;;18.20;14.37;;;8.50;99.90;;;;;;5074613;28;20901;-68
2022/12/22 10:28:54;;;;;;;18.60;15.60;;;8.60;99.90;;;;;;5074937;28;20452;-68
2022/12/22 10:31:24;;;;;;;24.13;16.00;;;8.60;99.90;;;;;;5075195;28;20449;-68
2022/12/22 10:33:54;;;;;;;22.40;15.33;;;8.60;99.90;;;;;;5074985;28;20455;-68
2022/12/22 10:36:24;;;;;;;19.07;14.10;;;8.60;99.90;;;;;;5075417;28;20454;-68
2022/12/22 10:39:01;;;;;;;19.77;14.07;;;8.60;99.90;;;;;;5075098;28;20464;-67
2022/12/22 10:41:30;;;;;;;19.50;14.53;;;8.60;99.90;;;;;;5075453;28;20805;-67
2022/12/22 10:44:01;;;;;;;17.13;13.10;;;8.70;99.90;;;;;;5075282;28;20458;-67
2022/12/22 10:46:37;;;;;;;17.47;13.70;;;8.70;99.90;;;;;;5074871;28;20584;-69
2022/12/22 10:49:17;;;;;;;19.67;13.80;;;8.70;99.90;;;;;;5074598;28;20474;-68
2022/12/22 10:51:46;;;;;;;19.83;13.50;;;8.70;99.90;;;;;;5074512;28;20446;-68
2022/12/22 10:54:31;;;;;;;19.33;14.20;;;8.70;99.90;;;;;;5034774;28;20487;-68
2022/12/22 10:57:04;;;;;;;17.90;14.50;;;8.70;99.90;;;;;;5034821;28;20470;-68
2022/12/22 10:59:34;;;;;;;21.00;13.57;;;8.80;99.90;;;;;;5034462;28;20846;-68
2022/12/22 11:02:25;;;;;;;16.40;13.27;;;8.80;99.90;;;;;;5034843;28;20472;-68
2022/12/22 11:04:53;;;;;;;17.73;12.73;;;8.80;99.90;;;;;;5034799;28;20455;-68
2022/12/22 11:07:21;;;;;;;18.80;14.20;;;8.80;99.90;;;;;;5034548;28;20456;-69
2022/12/22 11:09:48;;;;;;;17.77;13.80;;;8.80;99.90;;;;;;5034544;28;20452;-68
2022/12/22 11:12:25;;;;;;;18.60;13.40;;;8.80;99.90;;;;;;5035076;28;20521;-68
2022/12/22 11:15:00;;;;;;;19.33;15.00;;;8.90;99.90;;;;;;5035843;28;20450;-68
2022/12/22 11:17:35;;;;;;;19.70;13.47;;;8.90;99.90;;;;;;5038269;28;20749;-67
2022/12/22 11:20:30;;;;;;;19.10;12.57;;;8.90;99.90;;;;;;5038245;28;20471;-68
2022/12/22 11:23:02;;;;;;;16.37;13.90;;;8.90;99.90;;;;;;5038431;28;20451;-67
2022/12/22 11:25:38;;;;;;;18.53;13.23;;;8.90;99.90;;;;;;5038040;28;20509;-69
2022/12/22 11:28:24;;;;;;;15.63;12.93;;;9.00;99.90;;;;;;5038104;28;20610;-68
2022/12/22 11:31:07;;;;;;;14.60;13.10;;;9.00;99.90;;;;;;5038640;28;20771;-68
2022/12/22 11:33:44;;;;;;;18.63;12.83;;;9.00;99.90;;;;;;5040183;28;20446;-67
2022/12/22 11:36:22;;;;;;;15.20;12.73;;;9.10;99.90;;;;;;5047646;28;20537;-67
2022/12/22 11:38:57;;;;;;;13.50;12.03;;;9.10;99.90;;;;;;5057987;28;20505;-67
2022/12/22 11:41:42;;;;;;;15.20;12.23;;;9.10;99.90;;;;;;5058258;28;20466;-68
2022/12/22 11:44:28;;;;;;;16.33;12.87;;;9.10;99.90;;;;;;5057942;28;20450;-66
2022/12/22 11:47:02;;;;;;;15.33;12.20;;;9.20;99.90;;;;;;5058086;28;20795;-67
2022/12/22 11:49:48;;;;;;;14.07;12.57;;;9.20;99.90;;;;;;5057880;28;20587;-67
2022/12/22 11:52:28;;;;;;;14.10;11.10;;;9.30;99.90;;;;;;5057938;28;20439;-67
2022/12/22 11:55:11;;;;;;;14.07;12.27;;;9.30;99.90;;;;;;5058443;28;20760;-67
2022/12/22 11:57:48;;;;;;;14.30;12.10;;;9.30;99.90;;;;;;5038205;28;20455;-68
2022/12/22 12:00:17;;;;;;;12.90;11.47;;;9.30;99.90;;;;;;5037797;28;20539;-68
2022/12/22 12:03:15;;;;;;;13.10;11.70;;;9.40;99.90;;;;;;5037786;28;20456;-68
2022/12/22 12:06:11;;;;;;;15.73;12.27;;;9.40;99.90;;;;;;5037749;28;20506;-68
2022/12/22 12:08:50;;;;;;;12.60;11.27;;;9.50;99.90;;;;;;5038935;28;20764;-69
2022/12/22 12:11:25;;;;;;;11.93;10.73;;;9.50;99.90;;;;;;5039198;28;20851;-68
2022/12/22 12:14:02;;;;;;;13.60;12.20;;;9.50;99.90;;;;;;5039199;28;20440;-68
2022/12/22 12:16:38;;;;;;;12.23;10.93;;;9.50;99.90;;;;;;5039684;28;20537;-69
2022/12/22 12:19:35;;;;;;;12.93;11.70;;;9.50;99.90;;;;;;5038650;28;20436;-67
2022/12/22 12:22:05;;;;;;;14.50;11.40;;;9.50;99.90;;;;;;5038459;28;20582;-68
2022/12/22 12:24:46;;;;;;;12.33;11.03;;;9.50;99.90;;;;;;5038975;28;20470;-69
2022/12/22 12:27:25;;;;;;;13.57;11.77;;;9.50;99.90;;;;;;5037288;28;20444;-68
2022/12/22 12:30:01;;;;;;;14.00;12.20;;;9.50;99.90;;;;;;5037773;28;20444;-68
2022/12/22 12:32:31;;;;;;;12.07;10.43;;;9.50;99.90;;;;;;5039869;28;20436;-67
2022/12/22 12:35:07;;;;;;;11.80;10.60;;;9.50;99.90;;;;;;5037358;28;20444;-67
2022/12/22 12:37:38;;;;;;;12.13;10.80;;;9.60;99.90;;;;;;5036817;28;20451;-67
2022/12/22 12:40:27;;;;;;;11.70;10.50;;;9.60;99.90;;;;;;5036713;28;20460;-68
2022/12/22 12:42:54;;;;;;;13.17;10.80;;;9.60;99.90;;;;;;5037334;28;20467;-70
2022/12/22 12:45:37;;;;;;;13.00;11.57;;;9.60;99.90;;;;;;5037242;28;20482;-69
2022/12/22 12:48:40;;;;;;;12.10;10.60;;;9.50;99.90;;;;;;5037183;28;20448;-71
2022/12/22 12:51:40;;;;;;;12.50;10.77;;;9.60;99.90;;;;;;5024225;28;20538;-70
2022/12/22 12:54:39;;;;;;;14.30;12.77;;;9.50;99.90;;;;;;5036526;28;20466;-70
2022/12/22 12:57:24;;;;;;;12.07;10.53;;;9.60;99.90;;;;;;4956962;29;20577;-70
2022/12/22 12:59:52;;;;;;;12.73;11.20;;;9.60;99.90;;;;;;5028918;28;20456;-69
2022/12/22 13:02:33;;;;;;;12.10;10.60;;;9.60;99.90;;;;;;5038024;28;20985;-70
2022/12/22 13:05:01;;;;;;;13.90;11.67;;;9.60;99.90;;;;;;5037377;28;20470;-70
2022/12/22 13:08:06;;;;;;;12.43;11.23;;;9.60;99.90;;;;;;5037018;28;20761;-71
2022/12/22 13:10:36;;;;;;;12.80;11.10;;;9.60;99.90;;;;;;5037058;28;20951;-70
2022/12/22 13:13:03;;;;;;;11.67;10.57;;;9.60;99.90;;;;;;5037098;28;20531;-70
2022/12/22 13:15:34;;;;;;;12.23;10.70;;;9.70;99.90;;;;;;5037313;28;20547;-70
2022/12/22 13:18:02;;;;;;;11.90;10.70;;;9.70;99.90;;;;;;5037543;28;20510;-69
2022/12/22 13:20:32;;;;;;;13.20;11.80;;;9.70;99.90;;;;;;5037549;28;20488;-71
2022/12/22 13:23:01;;;;;;;12.50;11.20;;;9.70;99.90;;;;;;5037239;28;20492;-71
2022/12/22 13:25:39;;;;;;;11.90;10.60;;;9.70;99.90;;;;;;5037251;28;20535;-70
2022/12/22 13:28:10;;;;;;;13.87;11.60;;;9.70;99.90;;;;;;5037998;28;20494;-70
2022/12/22 13:30:37;;;;;;;11.80;10.33;;;9.70;99.90;;;;;;5037111;28;20451;-70
2022/12/22 13:33:12;;;;;;;11.30;10.13;;;9.70;99.90;;;;;;5036062;28;20487;-70
2022/12/22 13:35:40;;;;;;;13.07;10.47;;;9.70;99.90;;;;;;5036340;28;20526;-70
2022/12/22 13:38:28;;;;;;;13.93;10.70;;;9.80;99.90;;;;;;5035515;28;20764;-70
2022/12/22 13:40:57;;;;;;;13.07;10.43;;;9.80;99.90;;;;;;5037394;28;20475;-70
2022/12/22 13:43:25;;;;;;;12.87;10.77;;;9.80;99.90;;;;;;5037393;28;20466;-70
2022/12/22 13:45:54;;;;;;;13.57;11.73;;;9.80;99.90;;;;;;5036691;28;20574;-70
2022/12/22 13:48:25;;;;;;;14.27;11.60;;;9.80;99.90;;;;;;5037543;28;20532;-71
2022/12/22 13:50:53;;;;;;;11.60;10.40;;;9.80;99.90;;;;;;5038410;28;20527;-70
2022/12/22 13:53:28;;;;;;;13.37;11.20;;;9.80;99.90;;;;;;5038177;28;20459;-70
2022/12/22 13:55:57;;;;;;;12.57;10.43;;;9.80;99.90;;;;;;5037993;28;20446;-70
2022/12/22 13:58:28;;;;;;;13.43;9.70;;;9.70;99.90;;;;;;5039623;28;20779;-69
2022/12/22 14:01:03;;;;;;;10.87;9.77;;;9.70;99.90;;;;;;5038529;28;20765;-70
2022/12/22 14:03:30;;;;;;;12.03;10.47;;;9.60;99.90;;;;;;5037727;28;20546;-72
2022/12/22 14:05:57;;;;;;;17.87;12.70;;;9.60;99.90;;;;;;5036439;28;20459;-71
2022/12/22 14:08:24;;;;;;;11.10;9.90;;;9.60;99.90;;;;;;5037803;28;20456;-70
2022/12/22 14:10:53;;;;;;;12.63;11.07;;;9.60;99.90;;;;;;5036593;28;20456;-70
2022/12/22 14:13:27;;;;;;;13.33;11.97;;;9.60;99.90;;;;;;5036764;28;20467;-70
2022/12/22 14:16:00;;;;;;;12.50;10.40;;;9.50;99.90;;;;;;5037304;28;20444;-70
2022/12/22 14:18:28;;;;;;;13.77;10.27;;;9.50;99.90;;;;;;5037768;28;20440;-70
2022/12/22 14:20:56;;;;;;;14.77;10.43;;;9.60;99.90;;;;;;5037154;28;20579;-70
2022/12/22 14:23:27;;;;;;;12.70;10.63;;;9.50;99.90;;;;;;5037564;28;20474;-70
2022/12/22 14:25:55;;;;;;;14.40;11.00;;;9.50;99.90;;;;;;5038174;28;20776;-69
2022/12/22 14:28:27;;;;;;;16.60;12.10;;;9.50;99.90;;;;;;5037563;28;20456;-70
2022/12/22 14:30:57;;;;;;;14.27;11.37;;;9.50;99.90;;;;;;5036579;28;20540;-70
2022/12/22 14:33:29;;;;;;;13.50;11.10;;;9.50;99.90;;;;;;5036293;28;20470;-70
2022/12/22 14:36:16;;;;;;;12.47;10.87;;;9.40;99.90;;;;;;5035794;28;20456;-69
2022/12/22 14:38:46;;;;;;;12.67;11.30;;;9.40;99.90;;;;;;5036236;28;20472;-70
2022/12/22 14:44:02;;;;;;;13.53;10.13;;;9.40;99.90;;;;;;5035848;28;20454;-69
2022/12/22 14:46:30;;;;;;;11.93;9.83;;;9.40;99.90;;;;;;5036181;28;20563;-70
2022/12/22 14:48:59;;;;;;;14.50;11.47;;;9.40;99.90;;;;;;5036958;28;20539;-70
2022/12/22 14:51:27;;;;;;;12.83;10.10;;;9.40;99.90;;;;;;5040177;28;20452;-69
2022/12/22 14:53:56;;;;;;;13.37;10.47;;;9.40;99.90;;;;;;5041090;28;20474;-69
2022/12/22 14:56:25;;;;;;;13.67;10.63;;;9.40;99.90;;;;;;5041452;28;20474;-70
2022/12/22 14:59:06;;;;;;;11.40;10.20;;;9.40;99.90;;;;;;5040585;28;20448;-69
2022/12/22 15:01:35;;;;;;;11.80;9.90;;;9.30;99.90;;;;;;5040181;28;20478;-68
2022/12/22 15:04:06;;;;;;;13.70;10.83;;;9.30;99.90;;;;;;5041040;28;20555;-69
2022/12/22 15:06:36;;;;;;;12.17;10.17;;;9.30;99.90;;;;;;5040848;28;20778;-68
2022/12/22 15:09:25;;;;;;;11.07;8.93;;;9.30;99.90;;;;;;5041388;28;20466;-70
2022/12/22 15:11:55;;;;;;;11.93;9.47;;;9.30;99.90;;;;;;5046833;28;20475;-69
2022/12/22 15:14:25;;;;;;;13.03;9.80;;;9.20;99.90;;;;;;5061999;28;20465;-70
2022/12/22 15:16:57;;;;;;;11.10;8.83;;;9.30;99.90;;;;;;5059760;28;20490;-69
2022/12/22 15:19:24;;;;;;;11.07;9.50;;;9.30;99.90;;;;;;5059781;28;20486;-68
2022/12/22 15:21:51;;;;;;;11.30;9.03;;;9.30;99.90;;;;;;5066038;28;20492;-68
2022/12/22 15:24:18;;;;;;;11.47;8.47;;;9.20;99.90;;;;;;5078468;28;20459;-67
2022/12/22 15:26:46;;;;;;;11.40;9.43;;;9.30;99.90;;;;;;5078252;28;20450;-67
2022/12/22 15:29:13;;;;;;;10.67;9.40;;;9.30;99.90;;;;;;5078308;28;20549;-69
2022/12/22 15:31:41;;;;;;;10.80;9.50;;;9.20;99.90;;;;;;5067098;28;20458;-67
2022/12/22 15:34:15;;;;;;;12.10;10.00;;;9.30;99.90;;;;;;5037693;28;20495;-66
2022/12/22 15:36:41;;;;;;;13.03;9.70;;;9.30;99.90;;;;;;5038250;28;20797;-69
2022/12/22 15:39:16;;;;;;;11.57;9.00;;;9.30;99.90;;;;;;5038084;28;20470;-69
2022/12/22 15:41:44;;;;;;;12.10;10.03;;;9.20;99.90;;;;;;5037932;28;20467;-67
2022/12/22 15:44:11;;;;;;;10.57;9.53;;;9.20;99.90;;;;;;5038287;28;20460;-68
2022/12/22 15:46:39;;;;;;;11.80;9.90;;;9.20;99.90;;;;;;5037296;28;20484;-68
2022/12/22 15:49:11;;;;;;;11.57;10.07;;;9.20;99.90;;;;;;5037476;28;20455;-67
2022/12/22 15:51:39;;;;;;;11.87;9.90;;;9.20;99.90;;;;;;5037810;28;20765;-67
2022/12/22 15:54:08;;;;;;;13.13;10.13;;;9.30;99.90;;;;;;5037643;28;20521;-68
2022/12/22 15:56:36;;;;;;;12.53;10.57;;;9.30;99.90;;;;;;5037708;28;20543;-68
2022/12/22 15:59:02;;;;;;;14.40;11.30;;;9.30;99.90;;;;;;5037839;28;20486;-68
2022/12/22 16:01:29;;;;;;;15.30;11.43;;;9.20;99.90;;;;;;5036508;28;20490;-69
2022/12/22 16:03:56;;;;;;;16.13;11.30;;;9.20;99.90;;;;;;5037380;28;20845;-69
2022/12/22 16:06:24;;;;;;;12.87;9.80;;;9.20;99.90;;;;;;5037138;28;20472;-67
2022/12/22 16:08:53;;;;;;;14.47;9.97;;;9.10;99.90;;;;;;5037148;28;20474;-68
2022/12/22 16:11:20;;;;;;;15.67;10.23;;;9.10;99.90;;;;;;5036886;28;20452;-68
2022/12/22 16:13:48;;;;;;;16.00;12.07;;;9.10;99.90;;;;;;5037492;28;20496;-68
2022/12/22 16:16:15;;;;;;;15.30;11.30;;;9.10;99.90;;;;;;5037116;28;20456;-67
2022/12/22 16:18:42;;;;;;;17.07;13.50;;;9.10;99.90;;;;;;5037373;28;20526;-69
2022/12/22 16:21:15;;;;;;;17.90;12.90;;;9.10;99.90;;;;;;5036833;28;20459;-68
2022/12/22 16:23:46;;;;;;;17.40;13.40;;;9.10;99.90;;;;;;5037294;28;20444;-68
2022/12/22 16:26:16;;;;;;;17.73;13.30;;;9.00;99.90;;;;;;5037278;28;20448;-69
2022/12/22 16:28:43;;;;;;;15.50;12.97;;;9.00;99.90;;;;;;5036967;28;20848;-69
2022/12/22 16:31:17;;;;;;;18.87;13.17;;;9.00;99.90;;;;;;5036826;28;20555;-69
2022/12/22 16:33:44;;;;;;;17.57;13.70;;;9.00;99.90;;;;;;5037046;28;20758;-68
2022/12/22 16:36:11;;;;;;;19.17;14.67;;;9.00;99.90;;;;;;5036804;28;20459;-68
2022/12/22 16:38:38;;;;;;;21.00;14.43;;;9.00;99.90;;;;;;5036526;28;20945;-69
2022/12/22 16:41:07;;;;;;;21.00;14.90;;;9.00;99.90;;;;;;5036644;28;20555;-69